createdAt,value
2022-08-19T00:00:43.630Z,25.50
2022-08-19T00:03:10.137Z,25.50
2022-08-19T00:05:36.663Z,25.50
2022-08-19T00:08:03.187Z,25.40
2022-08-19T00:10:29.709Z,25.40
2022-08-19T00:12:56.281Z,25.40
2022-08-19T00:15:22.844Z,25.40
2022-08-19T00:17:49.377Z,25.40
2022-08-19T00:20:15.908Z,25.40
2022-08-19T00:22:42.413Z,25.40
2022-08-19T00:25:08.934Z,25.40
2022-08-19T00:27:36.368Z,25.40
2022-08-19T00:30:02.877Z,25.40
2022-08-19T00:32:29.411Z,25.40
2022-08-19T00:34:57.181Z,25.40
2022-08-19T00:37:23.684Z,25.40
2022-08-19T00:39:50.280Z,25.40
2022-08-19T00:42:16.847Z,25.40
2022-08-19T00:44:43.371Z,25.40
2022-08-19T00:47:11.027Z,25.40
2022-08-19T00:49:40.929Z,25.40
2022-08-19T00:52:07.452Z,25.40
2022-08-19T00:54:33.988Z,25.40
2022-08-19T00:57:00.544Z,25.40
2022-08-19T00:59:56.278Z,25.30
2022-08-19T01:02:13.610Z,25.40
2022-08-19T01:04:40.138Z,25.40
2022-08-19T01:07:06.673Z,25.30
2022-08-19T01:09:33.210Z,25.40
2022-08-19T01:11:59.729Z,25.40
2022-08-19T01:14:26.239Z,25.40
2022-08-19T01:16:52.765Z,25.40
2022-08-19T01:19:19.298Z,25.30
2022-08-19T01:21:45.832Z,25.30
2022-08-19T01:24:12.362Z,25.40
2022-08-19T01:26:38.881Z,25.30
2022-08-19T01:29:08.548Z,25.40
2022-08-19T01:31:36.418Z,25.30
2022-08-19T01:34:02.931Z,25.30
2022-08-19T01:36:29.482Z,25.30
2022-08-19T01:38:55.998Z,25.30
2022-08-19T01:41:22.547Z,25.30
2022-08-19T01:44:03.225Z,25.40
2022-08-19T01:46:36.949Z,25.30
2022-08-19T01:49:03.478Z,25.30
2022-08-19T01:51:30.009Z,25.30
2022-08-19T01:54:06.574Z,25.30
2022-08-19T01:56:38.501Z,25.30
2022-08-19T01:59:05.015Z,25.30
2022-08-19T02:01:31.615Z,25.30
2022-08-19T02:03:58.255Z,25.30
2022-08-19T02:06:26.985Z,25.20
2022-08-19T02:08:57.320Z,25.30
2022-08-19T02:11:24.277Z,25.20
2022-08-19T02:13:50.886Z,25.20
2022-08-19T02:16:17.416Z,25.20
2022-08-19T02:18:43.934Z,25.20
2022-08-19T02:21:10.457Z,25.30
2022-08-19T02:23:36.975Z,25.20
2022-08-19T02:26:03.508Z,25.20
2022-08-19T02:28:30.028Z,25.20
2022-08-19T02:30:56.557Z,25.20
2022-08-19T02:33:23.084Z,25.20
2022-08-19T02:35:49.591Z,25.20
2022-08-19T02:38:16.106Z,25.20
2022-08-19T02:40:42.617Z,25.20
2022-08-19T02:43:09.147Z,25.20
2022-08-19T02:45:35.660Z,25.20
2022-08-19T02:48:12.752Z,25.20
2022-08-19T02:50:51.884Z,25.10
2022-08-19T02:53:20.202Z,25.20
2022-08-19T02:55:46.732Z,25.10
2022-08-19T02:58:13.259Z,25.20
2022-08-19T03:00:39.781Z,25.10
2022-08-19T03:03:08.712Z,25.20
2022-08-19T03:05:48.015Z,25.10
2022-08-19T03:08:21.746Z,25.10
2022-08-19T03:10:48.268Z,25.10
2022-08-19T03:13:14.806Z,25.20
2022-08-19T03:15:41.338Z,25.10
2022-08-19T03:18:08.655Z,25.20
2022-08-19T03:20:35.167Z,25.10
2022-08-19T03:23:01.717Z,25.20
2022-08-19T03:25:28.251Z,25.20
2022-08-19T03:27:54.787Z,25.20
2022-08-19T03:30:23.263Z,25.10
2022-08-19T03:32:51.441Z,25.10
2022-08-19T03:35:23.565Z,25.10
2022-08-19T03:37:50.143Z,25.10
2022-08-19T03:40:16.818Z,25.10
2022-08-19T03:42:58.643Z,25.10
2022-08-19T03:45:25.208Z,25.10
2022-08-19T03:47:51.723Z,25.10
2022-08-19T03:50:18.250Z,25.10
2022-08-19T03:52:46.997Z,25.10
2022-08-19T03:55:13.566Z,25.10
2022-08-19T03:57:40.098Z,25.10
2022-08-19T04:00:14.692Z,25.10
2022-08-19T04:02:41.220Z,25.10
2022-08-19T04:05:07.732Z,25.10
2022-08-19T04:07:34.252Z,25.10
2022-08-19T04:10:00.767Z,25.10
2022-08-19T04:12:27.285Z,25.10
2022-08-19T04:14:53.796Z,25.10
2022-08-19T04:17:20.324Z,25.10
2022-08-19T04:19:46.840Z,25.10
2022-08-19T04:22:13.362Z,25.10
2022-08-19T04:24:39.891Z,25.10
2022-08-19T04:27:06.421Z,25.10
2022-08-19T04:29:32.964Z,25.10
2022-08-19T04:31:59.503Z,25.10
2022-08-19T04:34:26.052Z,25.10
2022-08-19T04:36:52.578Z,25.10
2022-08-19T04:39:19.088Z,25.10
2022-08-19T04:41:45.610Z,25.10
2022-08-19T04:44:12.119Z,25.00
2022-08-19T04:46:40.363Z,25.00
2022-08-19T04:49:17.567Z,25.00
2022-08-19T04:51:45.429Z,25.10
2022-08-19T04:54:11.960Z,25.10
2022-08-19T04:56:38.487Z,25.10
2022-08-19T04:59:05.027Z,25.10
2022-08-19T05:01:31.576Z,25.10
2022-08-19T05:03:58.191Z,25.10
2022-08-19T05:06:24.704Z,25.00
2022-08-19T05:08:51.248Z,25.00
2022-08-19T05:11:17.762Z,25.00
2022-08-19T05:13:44.278Z,25.00
2022-08-19T05:16:10.792Z,25.10
2022-08-19T05:18:37.341Z,25.10
2022-08-19T05:21:03.855Z,25.00
2022-08-19T05:23:30.389Z,25.00
2022-08-19T05:25:56.925Z,25.00
2022-08-19T05:28:23.438Z,25.00
2022-08-19T05:30:49.969Z,25.00
2022-08-19T05:33:16.508Z,25.10
2022-08-19T05:35:43.035Z,25.00
2022-08-19T05:38:09.535Z,25.00
2022-08-19T05:40:36.041Z,25.00
2022-08-19T05:43:02.559Z,25.00
2022-08-19T05:45:29.091Z,24.90
2022-08-19T05:47:55.602Z,24.90
2022-08-19T05:50:22.129Z,24.90
2022-08-19T05:52:50.050Z,24.90
2022-08-19T05:55:16.801Z,24.90
2022-08-19T05:57:43.323Z,24.90
2022-08-19T06:00:14.688Z,24.90
2022-08-19T06:02:41.236Z,24.90
2022-08-19T06:05:07.826Z,24.90
2022-08-19T06:07:38.768Z,25.00
2022-08-19T06:10:05.300Z,25.00
2022-08-19T06:12:31.809Z,25.00
2022-08-19T06:15:01.113Z,25.00
2022-08-19T06:17:28.287Z,25.00
2022-08-19T06:19:54.805Z,25.00
2022-08-19T06:22:21.320Z,25.10
2022-08-19T06:24:47.831Z,25.10
2022-08-19T06:27:14.374Z,25.10
2022-08-19T06:29:40.902Z,25.10
2022-08-19T06:32:07.415Z,25.10
2022-08-19T06:34:33.924Z,25.10
2022-08-19T06:37:00.473Z,25.10
2022-08-19T06:39:32.945Z,25.10
2022-08-19T06:41:59.540Z,25.10
2022-08-19T06:44:26.059Z,25.10
2022-08-19T06:46:54.948Z,25.10
2022-08-19T06:49:21.641Z,25.10
2022-08-19T06:51:48.183Z,25.10
2022-08-19T06:54:19.529Z,25.10
2022-08-19T06:56:46.316Z,25.10
2022-08-19T06:59:12.834Z,25.10
2022-08-19T07:01:44.755Z,25.10
2022-08-19T07:04:12.125Z,25.10
2022-08-19T07:06:44.352Z,25.10
2022-08-19T07:09:11.321Z,25.00
2022-08-19T07:11:38.761Z,25.00
2022-08-19T07:14:05.279Z,25.10
2022-08-19T07:16:31.844Z,25.10
2022-08-19T07:18:58.371Z,25.20
2022-08-19T07:21:26.110Z,25.10
2022-08-19T07:23:56.175Z,25.10
2022-08-19T07:26:27.980Z,25.20
2022-08-19T07:28:54.718Z,25.20
2022-08-19T07:31:23.816Z,25.20
2022-08-19T07:33:50.508Z,25.20
2022-08-19T07:36:19.876Z,25.20
2022-08-19T07:38:46.406Z,25.20
2022-08-19T07:41:12.916Z,25.20
2022-08-19T07:43:39.434Z,25.20
2022-08-19T07:46:06.027Z,25.20
2022-08-19T07:48:32.577Z,25.20
2022-08-19T07:50:59.097Z,25.20
2022-08-19T07:53:25.621Z,25.20
2022-08-19T07:55:52.151Z,25.20
2022-08-19T07:58:18.703Z,25.20
2022-08-19T08:00:45.235Z,25.20
2022-08-19T08:03:14.792Z,25.20
2022-08-19T08:05:43.703Z,25.30
2022-08-19T08:08:10.823Z,25.20
2022-08-19T08:10:38.771Z,25.30
2022-08-19T08:13:09.681Z,25.20
2022-08-19T08:15:41.841Z,25.20
2022-08-19T08:18:09.100Z,25.20
2022-08-19T08:20:35.705Z,25.20
2022-08-19T08:23:02.443Z,25.20
2022-08-19T08:25:28.981Z,25.20
2022-08-19T08:27:59.156Z,25.20
2022-08-19T08:30:25.697Z,25.20
2022-08-19T08:32:57.618Z,25.20
2022-08-19T08:35:24.869Z,25.20
2022-08-19T08:37:57.186Z,25.20
2022-08-19T08:40:23.881Z,25.20
2022-08-19T08:42:50.444Z,25.30
2022-08-19T08:45:17.026Z,25.30
2022-08-19T08:47:43.611Z,25.30
2022-08-19T08:50:11.178Z,25.30
2022-08-19T08:52:37.716Z,25.20
2022-08-19T08:55:06.196Z,25.30
2022-08-19T08:57:41.042Z,25.30
2022-08-19T09:00:15.525Z,25.30
2022-08-19T09:02:43.518Z,25.30
2022-08-19T09:05:10.435Z,25.30
2022-08-19T09:07:46.882Z,25.30
2022-08-19T09:10:13.874Z,25.30
2022-08-19T09:12:40.384Z,25.30
2022-08-19T09:15:09.543Z,25.30
2022-08-19T09:17:36.408Z,25.30
2022-08-19T09:20:03.056Z,25.30
2022-08-19T09:22:29.576Z,25.30
2022-08-19T09:24:56.103Z,25.30
2022-08-19T09:27:22.783Z,25.30
2022-08-19T09:30:09.188Z,25.30
2022-08-19T09:32:35.703Z,25.30
2022-08-19T09:35:02.251Z,25.30
2022-08-19T09:37:30.143Z,25.40
2022-08-19T09:39:56.728Z,25.30
2022-08-19T09:42:29.871Z,25.30
2022-08-19T09:44:57.145Z,25.30
2022-08-19T09:47:26.554Z,25.30
2022-08-19T09:49:53.101Z,25.40
2022-08-19T09:52:19.628Z,25.30
2022-08-19T09:54:46.147Z,25.30
2022-08-19T09:57:18.543Z,25.40
2022-08-19T09:59:45.055Z,25.40
2022-08-19T10:02:11.581Z,25.40
2022-08-19T10:04:39.247Z,25.40
2022-08-19T10:07:06.884Z,25.40
2022-08-19T10:09:34.565Z,25.40
2022-08-19T10:12:01.672Z,25.40
2022-08-19T10:14:29.277Z,25.40
2022-08-19T10:16:55.812Z,25.40
2022-08-19T10:19:25.698Z,25.40
2022-08-19T10:21:52.710Z,25.40
2022-08-19T10:24:19.624Z,25.40
2022-08-19T10:29:36.961Z,25.40
2022-08-19T10:32:12.866Z,25.40
2022-08-19T10:34:48.061Z,25.40
2022-08-19T10:37:15.066Z,25.40
2022-08-19T10:39:44.556Z,25.40
2022-08-19T10:42:11.104Z,25.40
2022-08-19T10:44:37.627Z,25.40
2022-08-19T10:47:04.159Z,25.40
2022-08-19T10:49:45.458Z,25.40
2022-08-19T10:52:11.995Z,25.40
2022-08-19T10:54:45.949Z,25.40
2022-08-19T10:57:12.489Z,25.40
2022-08-19T10:59:39.022Z,25.40
2022-08-19T11:02:05.545Z,25.40
2022-08-19T11:04:32.054Z,25.40
2022-08-19T11:06:58.577Z,25.50
2022-08-19T11:09:30.465Z,25.50
2022-08-19T11:12:00.045Z,25.40
2022-08-19T11:14:29.376Z,25.50
2022-08-19T11:16:58.739Z,25.40
2022-08-19T11:19:25.265Z,25.40
2022-08-19T11:21:51.795Z,25.40
2022-08-19T11:24:18.319Z,25.40
2022-08-19T11:26:44.840Z,25.40
2022-08-19T11:29:11.363Z,25.50
2022-08-19T11:31:37.877Z,25.40
2022-08-19T11:34:04.403Z,25.50
2022-08-19T11:36:30.937Z,25.50
2022-08-19T11:38:57.453Z,25.50
2022-08-19T11:41:23.985Z,25.50
2022-08-19T11:43:50.527Z,25.50
2022-08-19T11:46:17.057Z,25.50
2022-08-19T11:48:43.633Z,25.50
2022-08-19T11:51:10.215Z,25.50
2022-08-19T11:53:36.757Z,25.50
2022-08-19T11:56:03.301Z,25.50
2022-08-19T11:58:29.864Z,25.50
2022-08-19T12:00:56.392Z,25.50
2022-08-19T12:03:22.927Z,25.50
2022-08-19T12:05:49.433Z,25.50
2022-08-19T12:08:21.000Z,25.50
2022-08-19T12:10:47.528Z,25.50
2022-08-19T12:13:14.054Z,25.50
2022-08-19T12:15:40.604Z,25.50
2022-08-19T12:18:07.127Z,25.50
2022-08-19T12:20:35.464Z,25.60
2022-08-19T12:23:03.005Z,25.50
2022-08-19T12:25:29.535Z,25.50
2022-08-19T12:27:57.616Z,25.50
2022-08-19T12:30:24.377Z,25.50
2022-08-19T12:32:50.909Z,25.50
2022-08-19T12:35:17.434Z,25.50
2022-08-19T12:37:43.943Z,25.50
2022-08-19T12:40:10.605Z,25.50
2022-08-19T12:42:37.204Z,25.50
2022-08-19T12:45:03.743Z,25.60
2022-08-19T12:47:33.032Z,25.60
2022-08-19T12:49:59.643Z,25.50
2022-08-19T12:52:26.187Z,25.60
2022-08-19T12:54:54.326Z,25.60
2022-08-19T12:57:21.399Z,25.60
2022-08-19T12:59:49.720Z,25.60
2022-08-19T13:02:16.234Z,25.60
2022-08-19T13:04:42.746Z,25.60
2022-08-19T13:07:09.255Z,25.60
2022-08-19T13:09:35.760Z,25.60
2022-08-19T13:12:02.286Z,25.60
2022-08-19T13:14:28.809Z,25.60
2022-08-19T13:16:55.334Z,25.60
2022-08-19T13:19:21.859Z,25.60
2022-08-19T13:21:48.392Z,25.60
2022-08-19T13:24:21.150Z,25.60
2022-08-19T13:26:47.671Z,25.60
2022-08-19T13:29:14.199Z,25.60
2022-08-19T13:31:40.729Z,25.60
2022-08-19T13:34:07.255Z,25.70
2022-08-19T13:36:33.791Z,25.60
2022-08-19T13:39:00.329Z,25.60
2022-08-19T13:41:26.847Z,25.60
2022-08-19T13:43:53.372Z,25.60
2022-08-19T13:46:19.903Z,25.60
2022-08-19T13:48:46.427Z,25.60
2022-08-19T13:51:12.938Z,25.60
2022-08-19T13:53:39.445Z,25.60
2022-08-19T13:56:05.976Z,25.60
2022-08-19T13:58:32.511Z,25.70
2022-08-19T14:00:59.133Z,25.70
2022-08-19T14:03:25.706Z,25.60
2022-08-19T14:05:52.229Z,25.70
2022-08-19T14:08:18.739Z,25.60
2022-08-19T14:10:45.327Z,25.70
2022-08-19T14:13:11.957Z,25.60
2022-08-19T14:15:38.492Z,25.70
2022-08-19T14:18:05.032Z,25.70
2022-08-19T14:20:31.588Z,25.70
2022-08-19T14:22:58.092Z,25.70
2022-08-19T14:25:24.626Z,25.70
2022-08-19T14:27:51.250Z,25.70
2022-08-19T14:30:17.779Z,25.70
2022-08-19T14:32:44.311Z,25.70
2022-08-19T14:35:10.873Z,25.70
2022-08-19T14:37:37.384Z,25.70
2022-08-19T14:40:12.475Z,25.70
2022-08-19T14:42:39.043Z,25.70
2022-08-19T14:45:05.588Z,25.70
2022-08-19T14:47:32.758Z,25.70
2022-08-19T14:49:59.294Z,25.70
2022-08-19T14:52:25.971Z,25.70
2022-08-19T14:54:52.494Z,25.70
2022-08-19T14:57:19.008Z,25.80
2022-08-19T14:59:45.533Z,25.80
2022-08-19T15:02:33.750Z,25.70
2022-08-19T15:04:59.369Z,25.70
2022-08-19T15:07:29.514Z,25.70
2022-08-19T15:09:56.234Z,25.80
2022-08-19T15:12:22.779Z,25.80
2022-08-19T15:14:49.308Z,25.80
2022-08-19T15:17:17.761Z,25.70
2022-08-19T15:19:44.294Z,25.80
2022-08-19T15:22:10.816Z,25.70
2022-08-19T15:24:37.330Z,25.70
2022-08-19T15:27:14.815Z,25.80
2022-08-19T15:29:41.343Z,25.80
2022-08-19T15:32:07.868Z,25.80
2022-08-19T15:34:34.391Z,25.80
2022-08-19T15:37:03.177Z,25.70
2022-08-19T15:39:29.697Z,25.80
2022-08-19T15:41:56.225Z,25.80
2022-08-19T15:44:22.768Z,25.80
2022-08-19T15:46:49.379Z,25.80
2022-08-19T15:49:15.938Z,25.80
2022-08-19T15:51:42.451Z,25.80
2022-08-19T15:54:08.972Z,25.80
2022-08-19T15:56:35.496Z,25.80
2022-08-19T15:59:02.020Z,25.70
2022-08-19T16:01:28.591Z,25.80
2022-08-19T16:03:55.126Z,25.70
2022-08-19T16:06:21.647Z,25.70
2022-08-19T16:08:49.139Z,25.80
2022-08-19T16:11:19.924Z,25.80
2022-08-19T16:13:46.640Z,25.80
2022-08-19T16:16:13.200Z,25.70
2022-08-19T16:18:39.715Z,25.70
2022-08-19T16:21:06.254Z,25.80
2022-08-19T16:23:32.777Z,25.70
2022-08-19T16:25:59.287Z,25.80
2022-08-19T16:28:25.801Z,25.80
2022-08-19T16:30:52.323Z,25.90
2022-08-19T16:33:22.893Z,25.90
2022-08-19T16:35:54.942Z,26.00
2022-08-19T16:38:28.189Z,26.10
2022-08-19T16:40:54.729Z,26.00
2022-08-19T16:43:21.260Z,26.00
2022-08-19T16:45:47.819Z,25.90
2022-08-19T16:48:14.343Z,25.90
2022-08-19T16:50:49.278Z,25.90
2022-08-19T16:53:16.298Z,25.90
2022-08-19T16:55:42.828Z,25.90
2022-08-19T16:58:09.347Z,25.80
2022-08-19T17:00:35.897Z,25.90
2022-08-19T17:03:02.418Z,25.80
2022-08-19T17:05:28.967Z,25.90
2022-08-19T17:07:55.471Z,25.80
2022-08-19T17:10:22.001Z,25.80
2022-08-19T17:12:48.586Z,25.80
2022-08-19T17:15:15.153Z,25.80
2022-08-19T17:17:41.691Z,25.80
2022-08-19T17:20:08.246Z,25.80
2022-08-19T17:22:34.774Z,25.80
2022-08-19T17:25:01.297Z,25.80
2022-08-19T17:27:31.479Z,25.80
2022-08-19T17:29:59.089Z,25.80
2022-08-19T17:32:25.627Z,25.70
2022-08-19T17:34:52.166Z,25.70
2022-08-19T17:37:18.717Z,25.80
2022-08-19T17:39:45.281Z,25.80
2022-08-19T17:42:11.825Z,25.70
2022-08-19T17:44:38.328Z,25.80
2022-08-19T17:47:04.851Z,25.70
2022-08-19T17:49:32.615Z,25.70
2022-08-19T17:51:59.925Z,25.70
2022-08-19T17:54:33.223Z,25.70
2022-08-19T17:57:03.293Z,25.70
2022-08-19T17:59:30.268Z,25.70
2022-08-19T18:01:56.958Z,25.70
2022-08-19T18:04:23.520Z,25.70
2022-08-19T18:06:53.077Z,25.70
2022-08-19T18:09:20.965Z,25.70
2022-08-19T18:11:53.023Z,25.70
2022-08-19T18:14:19.845Z,25.70
2022-08-19T18:16:46.381Z,25.70
2022-08-19T18:19:12.932Z,25.70
2022-08-19T18:21:39.444Z,25.70
2022-08-19T18:24:05.969Z,25.70
2022-08-19T18:26:32.505Z,25.70
2022-08-19T18:28:59.051Z,25.70
2022-08-19T18:31:25.590Z,25.70
2022-08-19T18:33:52.114Z,25.70
2022-08-19T18:36:32.058Z,25.70
2022-08-19T18:39:07.986Z,25.70
2022-08-19T18:41:34.647Z,25.70
2022-08-19T18:44:01.161Z,25.70
2022-08-19T18:46:27.728Z,25.70
2022-08-19T18:49:03.392Z,25.70
2022-08-19T18:51:29.942Z,25.70
2022-08-19T18:53:56.459Z,25.70
2022-08-19T18:56:22.987Z,25.60
2022-08-19T18:58:49.503Z,25.70
2022-08-19T19:01:16.081Z,25.60
2022-08-19T19:03:42.642Z,25.60
2022-08-19T19:06:09.243Z,25.60
2022-08-19T19:08:35.820Z,25.60
2022-08-19T19:11:02.351Z,25.70
2022-08-19T19:13:28.876Z,25.60
2022-08-19T19:15:55.400Z,25.60
2022-08-19T19:18:21.934Z,25.60
2022-08-19T19:20:48.439Z,25.60
2022-08-19T19:23:14.955Z,25.60
2022-08-19T19:25:49.971Z,25.60
2022-08-19T19:28:21.359Z,25.60
2022-08-19T19:30:47.882Z,25.60
2022-08-19T19:33:14.416Z,25.60
2022-08-19T19:35:40.951Z,25.60
2022-08-19T19:38:13.636Z,25.50
2022-08-19T19:40:40.143Z,25.50
2022-08-19T19:43:06.669Z,25.50
2022-08-19T19:45:33.193Z,25.60
2022-08-19T19:47:59.732Z,25.50
2022-08-19T19:50:26.260Z,25.50
2022-08-19T19:52:52.793Z,25.50
2022-08-19T19:55:19.314Z,25.50
2022-08-19T19:57:45.859Z,25.50
2022-08-19T20:00:12.375Z,25.50
2022-08-19T20:02:38.899Z,25.50
2022-08-19T20:05:05.424Z,25.50
2022-08-19T20:07:31.951Z,25.50
2022-08-19T20:09:59.986Z,25.50
2022-08-19T20:12:26.892Z,25.50
2022-08-19T20:14:53.443Z,25.50
2022-08-19T20:17:19.962Z,25.50
2022-08-19T20:19:46.500Z,25.50
2022-08-19T20:22:15.351Z,25.50
2022-08-19T20:24:41.864Z,25.50
2022-08-19T20:27:08.387Z,25.50
2022-08-19T20:29:38.304Z,25.50
2022-08-19T20:32:06.020Z,25.50
2022-08-19T20:34:32.541Z,25.50
2022-08-19T20:36:59.065Z,25.50
2022-08-19T20:39:25.579Z,25.50
2022-08-19T20:41:52.108Z,25.50
2022-08-19T20:44:18.645Z,25.50
2022-08-19T20:46:54.721Z,25.50
2022-08-19T20:49:27.801Z,25.40
2022-08-19T20:51:54.821Z,25.40
2022-08-19T20:54:21.349Z,25.40
2022-08-19T20:56:47.884Z,25.40
2022-08-19T20:59:14.426Z,25.40
2022-08-19T21:01:40.955Z,25.40
2022-08-19T21:04:07.480Z,25.40
2022-08-19T21:06:34.001Z,25.40
2022-08-19T21:09:00.526Z,25.40
2022-08-19T21:11:27.056Z,25.30
2022-08-19T21:13:53.577Z,25.40
2022-08-19T21:16:20.093Z,25.30
2022-08-19T21:18:51.454Z,25.30
2022-08-19T21:21:17.974Z,25.30
2022-08-19T21:23:44.520Z,25.30
2022-08-19T21:26:11.052Z,25.30
2022-08-19T21:28:37.592Z,25.30
2022-08-19T21:31:04.095Z,25.30
2022-08-19T21:33:31.913Z,25.30
2022-08-19T21:35:58.663Z,25.30
2022-08-19T21:38:25.184Z,25.40
2022-08-19T21:40:51.700Z,25.30
2022-08-19T21:43:18.227Z,25.30
2022-08-19T21:45:44.747Z,25.30
2022-08-19T21:48:11.263Z,25.30
2022-08-19T21:50:37.783Z,25.30
2022-08-19T21:53:04.286Z,25.30
2022-08-19T21:55:30.795Z,25.30
2022-08-19T21:57:57.506Z,25.30
2022-08-19T22:00:24.178Z,25.30
2022-08-19T22:02:51.149Z,25.30
2022-08-19T22:05:17.681Z,25.30
2022-08-19T22:07:44.214Z,25.30
2022-08-19T22:10:10.749Z,25.30
2022-08-19T22:12:37.263Z,25.30
2022-08-19T22:15:03.791Z,25.40
2022-08-19T22:17:30.315Z,25.30
2022-08-19T22:19:56.852Z,25.30
2022-08-19T22:22:23.374Z,25.30
2022-08-19T22:24:49.913Z,25.30
2022-08-19T22:27:16.449Z,25.30
2022-08-19T22:29:42.994Z,25.30
2022-08-19T22:32:26.973Z,25.30
2022-08-19T22:34:54.942Z,25.30
2022-08-19T22:37:21.468Z,25.30
2022-08-19T22:39:48.051Z,25.30
2022-08-19T22:42:15.457Z,25.30
2022-08-19T22:44:42.001Z,25.30
2022-08-19T22:47:08.521Z,25.30
2022-08-19T22:49:35.060Z,25.30
2022-08-19T22:52:01.577Z,25.30
2022-08-19T22:54:28.102Z,25.30
2022-08-19T22:56:54.613Z,25.30
2022-08-19T22:59:21.133Z,25.30
2022-08-19T23:01:47.646Z,25.30
2022-08-19T23:04:14.175Z,25.30
2022-08-19T23:06:42.280Z,25.20
2022-08-19T23:09:08.977Z,25.30
2022-08-19T23:11:35.527Z,25.20
2022-08-19T23:14:02.152Z,25.20
2022-08-19T23:16:28.692Z,25.20
2022-08-19T23:18:56.112Z,25.20
2022-08-19T23:21:27.553Z,25.20
2022-08-19T23:23:57.530Z,25.20
2022-08-19T23:26:24.079Z,25.30
2022-08-19T23:28:50.602Z,25.20
2022-08-19T23:31:17.134Z,25.30
2022-08-19T23:33:51.404Z,25.30
2022-08-19T23:36:18.490Z,25.30
2022-08-19T23:38:45.026Z,25.30
2022-08-19T23:41:11.550Z,25.30
2022-08-19T23:43:38.058Z,25.30
2022-08-19T23:46:06.603Z,25.30
2022-08-19T23:48:37.291Z,25.30
2022-08-19T23:51:03.809Z,25.30
2022-08-19T23:53:30.317Z,25.30
2022-08-19T23:55:56.849Z,25.30
2022-08-19T23:58:23.377Z,25.30
